Time;durP1;ratioP1;P1;durP2;ratioP2;P2;SDS_P1;SDS_P2;PMS_P1;PMS_P2;Temp;Humidity;BMP_temperature;BMP_pressure;BME280_temperature;BME280_humidity;BME280_pressure;Samples;Min_cycle;Max_cycle;Signal;HPM_P1;HPM_P2
2022/08/05 00:01:52;;;;;;;17.92;6.75;;;;;;;18.04;99.33;101302.88;5026272;28;20032;-78
2022/08/05 00:04:18;;;;;;;17.15;6.93;;;;;;;18.06;99.31;101311.72;5027761;28;20120;-78
2022/08/05 00:06:44;;;;;;;22.27;6.78;;;;;;;18.05;98.66;101306.44;5028873;28;20029;-78
2022/08/05 00:09:09;;;;;;;19.13;6.65;;;;;;;18.03;98.87;101300.28;5024908;28;20053;-78
2022/08/05 00:11:35;;;;;;;20.25;7.35;;;;;;;18.03;99.10;101300.28;5013778;28;20034;-78
2022/08/05 00:14:00;;;;;;;17.02;7.78;;;;;;;18.05;99.66;101299.13;5029280;28;20029;-78
2022/08/05 00:16:25;;;;;;;20.00;7.72;;;;;;;18.04;98.86;101304.72;5026833;28;20029;-78
2022/08/05 00:18:51;;;;;;;17.38;6.40;;;;;;;18.04;99.41;101308.31;5028593;28;20478;-78
2022/08/05 00:21:17;;;;;;;18.95;7.32;;;;;;;18.05;99.43;101310.00;5029599;28;20029;-78
2022/08/05 00:23:45;;;;;;;19.02;7.25;;;;;;;18.02;99.56;101310.31;5030526;28;20053;-78
2022/08/05 00:26:11;;;;;;;17.70;7.20;;;;;;;18.02;99.43;101296.69;5028652;28;20500;-78
2022/08/05 00:28:37;;;;;;;22.67;8.15;;;;;;;18.04;99.71;101302.88;5029755;28;20108;-78
2022/08/05 00:31:04;;;;;;;17.88;7.78;;;;;;;18.03;99.45;101301.16;5027599;28;20604;-78
2022/08/05 00:33:29;;;;;;;18.42;7.40;;;;;;;18.05;99.47;101311.88;5025163;28;20056;-78
2022/08/05 00:35:55;;;;;;;18.65;7.45;;;;;;;18.06;98.65;101319.03;5023826;28;20106;-78
2022/08/05 00:38:21;;;;;;;20.27;7.15;;;;;;;18.07;99.46;101318.88;5016934;28;20639;-78
2022/08/05 00:40:48;;;;;;;18.77;7.38;;;;;;;18.10;99.63;101323.16;5028878;28;20112;-78
2022/08/05 00:43:14;;;;;;;19.70;8.52;;;;;;;18.10;98.72;101324.03;5028054;28;20041;-78
2022/08/05 00:45:39;;;;;;;23.58;7.05;;;;;;;18.07;98.39;101313.44;5027101;28;20029;-78
2022/08/05 00:48:08;;;;;;;19.20;7.75;;;;;;;18.05;98.16;101306.44;5030625;28;20080;-78
2022/08/05 00:50:33;;;;;;;22.85;7.80;;;;;;;18.05;98.97;101301.00;5027490;28;20500;-78
2022/08/05 00:52:59;;;;;;;16.38;6.32;;;;;;;18.07;99.69;101302.56;5026316;28;20030;-78
2022/08/05 00:55:24;;;;;;;19.33;7.35;;;;;;;18.10;100.00;101302.25;5021138;28;20040;-78
2022/08/05 00:57:50;;;;;;;18.52;7.95;;;;;;;18.11;100.00;101300.38;5029705;28;20503;-78
2022/08/05 01:00:15;;;;;;;18.30;7.93;;;;;;;18.13;100.00;101303.81;5031388;28;20412;-78
2022/08/05 01:02:40;;;;;;;21.17;8.25;;;;;;;18.13;100.00;101301.09;5029706;28;20030;-76
2022/08/05 01:05:06;;;;;;;19.40;7.63;;;;;;;18.15;100.00;101299.06;5028141;28;20021;-76
2022/08/05 01:07:31;;;;;;;21.30;7.85;;;;;;;18.16;100.00;101312.53;5032048;28;20061;-76
2022/08/05 01:09:57;;;;;;;19.90;6.97;;;;;;;18.17;100.00;101327.00;5032285;28;20108;-76
2022/08/05 01:12:24;;;;;;;19.10;6.97;;;;;;;18.18;100.00;101336.84;5031782;28;20029;-76
2022/08/05 01:15:04;;;;;;;16.83;6.97;;;;;;;18.20;100.00;101344.88;5029994;28;20017;-76
2022/08/05 01:17:37;;;;;;;17.15;6.22;;;;;;;18.21;99.71;101352.03;5034487;28;20136;-76
2022/08/05 01:20:02;;;;;;;16.63;6.50;;;;;;;18.22;99.05;101364.63;5033622;28;20027;-76
2022/08/05 01:22:54;;;;;;;20.10;7.05;;;;;;;18.24;98.63;101387.94;5026540;28;20129;-76
2022/08/05 01:25:53;;;;;;;19.67;7.38;;;;;;;18.27;99.16;101389.50;5029169;28;20050;-76
2022/08/05 01:28:44;;;;;;;19.67;7.32;;;;;;;18.28;98.27;101388.53;5031316;28;20040;-76
2022/08/05 01:31:40;;;;;;;19.20;6.78;;;;;;;18.25;98.58;101369.78;5033277;28;20087;-76
2022/08/05 01:34:14;;;;;;;18.30;7.28;;;;;;;18.21;99.43;101369.19;5026654;28;20121;-76
2022/08/05 01:36:45;;;;;;;22.98;6.53;;;;;;;18.21;100.00;101360.19;5032493;28;20026;-76
2022/08/05 01:39:14;;;;;;;21.23;6.28;;;;;;;18.20;100.00;101367.50;5031985;28;20080;-76
2022/08/05 01:41:41;;;;;;;19.27;7.03;;;;;;;18.24;100.00;101368.06;5030619;28;20108;-76
2022/08/05 01:44:08;;;;;;;21.10;7.60;;;;;;;18.25;100.00;101375.22;5021535;28;20053;-76
2022/08/05 01:46:34;;;;;;;20.60;6.88;;;;;;;18.26;98.98;101376.91;5033970;28;20504;-76
2022/08/05 01:49:01;;;;;;;17.33;6.97;;;;;;;18.26;98.83;101376.91;5031436;28;20056;-76
2022/08/05 01:51:29;;;;;;;17.83;6.82;;;;;;;18.26;99.17;101368.75;5032687;28;20029;-76
2022/08/05 01:53:56;;;;;;;15.82;6.47;;;;;;;18.26;99.27;101368.75;5029260;28;20029;-76
2022/08/05 01:56:25;;;;;;;16.73;6.18;;;;;;;18.25;99.77;101364.34;5031145;28;20029;-76
2022/08/05 01:58:51;;;;;;;17.95;6.75;;;;;;;18.23;98.93;101355.44;5026396;28;20068;-76
2022/08/05 02:01:19;;;;;;;17.02;6.78;;;;;;;18.20;99.46;101342.16;5022263;28;20029;-76
2022/08/05 02:03:47;;;;;;;21.38;7.70;;;;;;;18.19;99.83;101322.25;5030280;28;20105;-76
2022/08/05 02:06:13;;;;;;;18.50;6.63;;;;;;;18.19;100.00;101302.38;5031092;28;20036;-76
2022/08/05 02:08:39;;;;;;;18.25;6.88;;;;;;;18.15;100.00;101305.38;5028522;28;20470;-76
2022/08/05 02:11:08;;;;;;;19.00;7.05;;;;;;;18.16;100.00;101307.09;5028305;28;20032;-76
2022/08/05 02:13:40;;;;;;;20.88;7.57;;;;;;;18.18;100.00;101301.50;5029407;28;20560;-76
2022/08/05 02:16:25;;;;;;;18.15;7.03;;;;;;;18.21;100.00;101336.56;5032022;28;20104;-76
2022/08/05 02:18:59;;;;;;;18.65;7.22;;;;;;;18.20;100.00;101334.88;5024217;28;20124;-76
2022/08/05 02:21:32;;;;;;;16.65;6.40;;;;;;;18.17;100.00;101308.81;5028991;28;20445;-76
2022/08/05 02:24:03;;;;;;;21.67;7.30;;;;;;;18.17;100.00;101319.69;5026552;28;20065;-76
2022/08/05 02:26:45;;;;;;;19.40;7.32;;;;;;;18.19;100.00;101335.00;5031538;28;20036;-76
2022/08/05 02:29:12;;;;;;;18.30;7.15;;;;;;;18.16;100.00;101339.72;5022883;28;20069;-76
2022/08/05 02:31:39;;;;;;;15.45;6.40;;;;;;;18.15;100.00;101348.03;5025302;28;20117;-76
2022/08/05 02:34:08;;;;;;;18.30;6.68;;;;;;;18.13;100.00;101353.63;5027689;28;20056;-76
2022/08/05 02:36:38;;;;;;;20.65;6.63;;;;;;;18.10;99.33;101356.66;5032096;28;20060;-76
2022/08/05 02:39:06;;;;;;;18.63;7.28;;;;;;;18.09;99.64;101362.25;5030602;28;20021;-76
2022/08/05 02:41:32;;;;;;;20.42;6.88;;;;;;;18.08;100.00;101364.13;5031832;28;20025;-76
2022/08/05 02:43:59;;;;;;;18.38;6.93;;;;;;;18.06;100.00;101360.69;5028944;28;20087;-76
2022/08/05 02:46:27;;;;;;;23.45;7.15;;;;;;;18.03;100.00;101344.66;5031183;28;20516;-76
2022/08/05 02:48:53;;;;;;;19.98;7.30;;;;;;;18.02;100.00;101342.09;5028889;28;20035;-76
2022/08/05 02:51:19;;;;;;;18.38;7.22;;;;;;;18.01;100.00;101340.38;5029482;28;20501;-76
2022/08/05 02:53:46;;;;;;;20.58;7.07;;;;;;;17.96;100.00;101328.06;5029199;28;20485;-76
2022/08/05 02:56:12;;;;;;;18.63;7.28;;;;;;;17.96;100.00;101327.22;5032229;28;20029;-76
2022/08/05 02:58:40;;;;;;;18.13;7.20;;;;;;;17.94;100.00;101326.53;5029221;28;20021;-76
2022/08/05 03:01:08;;;;;;;20.45;7.40;;;;;;;17.93;100.00;101324.81;5025187;28;20137;-76
2022/08/05 03:03:39;;;;;;;23.70;7.60;;;;;;;17.91;99.93;101321.38;5031185;28;20043;-76
2022/08/05 03:06:05;;;;;;;17.52;6.53;;;;;;;17.92;99.86;101328.53;5031684;28;20030;-76
2022/08/05 03:08:31;;;;;;;20.17;6.75;;;;;;;17.93;100.00;101328.38;5031903;28;20025;-76
2022/08/05 03:10:56;;;;;;;21.90;6.75;;;;;;;17.94;100.00;101327.38;5027466;28;20025;-76
2022/08/05 03:13:22;;;;;;;17.65;7.13;;;;;;;17.92;100.00;101334.84;5031402;28;20039;-76
2022/08/05 03:15:47;;;;;;;19.85;7.22;;;;;;;17.92;100.00;101334.84;5030405;28;20063;-76
2022/08/05 03:18:13;;;;;;;19.42;7.63;;;;;;;17.95;100.00;101344.53;5031710;28;20040;-76
2022/08/05 03:20:38;;;;;;;18.17;6.97;;;;;;;17.95;100.00;101358.13;5029809;28;20071;-76
2022/08/05 03:23:06;;;;;;;18.23;6.82;;;;;;;17.94;100.00;101364.59;5027313;28;20568;-76
2022/08/05 03:25:36;;;;;;;20.35;7.45;;;;;;;17.92;100.00;101353.00;5029742;28;20034;-76
2022/08/05 03:28:03;;;;;;;20.50;7.88;;;;;;;17.92;100.00;101355.72;5019581;28;20022;-76
2022/08/05 03:30:31;;;;;;;20.70;7.35;;;;;;;17.93;100.00;101360.16;5029360;28;20053;-76
2022/08/05 03:33:01;;;;;;;19.30;7.72;;;;;;;17.91;99.99;101363.03;5026058;28;20056;-76
2022/08/05 03:35:28;;;;;;;24.67;7.93;;;;;;;17.89;100.00;101362.28;5031385;28;20036;-76
2022/08/05 03:37:57;;;;;;;21.40;7.75;;;;;;;17.88;100.00;101365.13;5028607;28;20462;-76
2022/08/05 03:40:22;;;;;;;18.83;6.78;;;;;;;17.89;100.00;101366.84;5029106;28;20065;-76
2022/08/05 03:42:48;;;;;;;21.35;7.13;;;;;;;17.88;99.90;101367.84;5029873;28;20057;-76
2022/08/05 03:45:13;;;;;;;19.60;7.55;;;;;;;17.85;99.99;101351.84;5028834;28;20490;-76
2022/08/05 03:47:38;;;;;;;18.42;7.22;;;;;;;17.86;99.95;101354.41;5031904;28;20033;-76
2022/08/05 03:50:04;;;;;;;20.02;7.07;;;;;;;17.83;100.00;101354.72;5025377;28;20492;-76
2022/08/05 03:52:34;;;;;;;21.85;7.30;;;;;;;17.80;99.93;101352.28;5029613;28;20033;-76
2022/08/05 03:55:02;;;;;;;16.73;6.25;;;;;;;17.79;100.00;101347.88;5017081;28;20466;-76
2022/08/05 03:57:32;;;;;;;18.98;7.00;;;;;;;17.77;99.89;101344.44;5026579;28;20029;-76
2022/08/05 04:00:09;;;;;;;18.15;6.70;;;;;;;17.76;99.64;101334.56;5021187;28;20013;-76
2022/08/05 04:02:36;;;;;;;19.52;7.35;;;;;;;17.73;99.45;101337.56;5025522;28;20033;-76
2022/08/05 04:05:05;;;;;;;27.30;7.85;;;;;;;17.71;99.53;101337.72;5030259;28;20071;-76
2022/08/05 04:07:32;;;;;;;23.40;7.57;;;;;;;17.70;99.44;101348.75;5030495;28;20151;-76
2022/08/05 04:09:57;;;;;;;21.92;7.32;;;;;;;17.66;99.65;101342.75;5025522;28;20377;-76
2022/08/05 04:12:23;;;;;;;20.80;7.78;;;;;;;17.63;99.48;101335.75;5031100;28;20030;-76
2022/08/05 04:14:49;;;;;;;19.45;7.38;;;;;;;17.62;99.71;101330.44;5019357;28;20026;-76
2022/08/05 04:17:15;;;;;;;21.20;6.88;;;;;;;17.57;99.70;101338.19;5022773;28;20063;-76
2022/08/05 04:19:43;;;;;;;20.40;7.13;;;;;;;17.55;99.51;101337.47;5025220;28;20397;-76
2022/08/05 04:22:08;;;;;;;18.67;7.10;;;;;;;17.50;99.32;101337.91;5028894;28;20104;-76
2022/08/05 04:24:33;;;;;;;21.05;7.35;;;;;;;17.48;99.19;101337.19;5028205;28;20167;-76
2022/08/05 04:26:59;;;;;;;16.85;6.82;;;;;;;17.46;99.26;101331.06;5030065;28;20481;-76
2022/08/05 04:29:24;;;;;;;22.25;7.85;;;;;;;17.42;99.37;101325.06;5027808;28;20053;-76
2022/08/05 04:31:49;;;;;;;18.45;6.47;;;;;;;17.43;99.68;101337.63;5030955;28;20029;-76
2022/08/05 04:34:14;;;;;;;29.05;7.80;;;;;;;17.42;99.78;101338.66;5028257;28;20030;-76
2022/08/05 04:36:39;;;;;;;16.85;6.82;;;;;;;17.41;99.98;101345.09;5029435;28;20014;-76
2022/08/05 04:39:06;;;;;;;18.95;6.80;;;;;;;17.41;100.00;101353.25;5029952;28;20045;-76
2022/08/05 04:41:31;;;;;;;17.45;6.55;;;;;;;17.42;100.00;101360.41;5015475;28;20030;-76
2022/08/05 04:43:56;;;;;;;19.63;7.32;;;;;;;17.42;100.00;101363.13;5030153;28;20029;-76
2022/08/05 04:46:22;;;;;;;21.42;7.43;;;;;;;17.44;100.00;101358.38;5034648;28;20029;-76
2022/08/05 04:48:47;;;;;;;21.85;8.20;;;;;;;17.47;100.00;101346.38;5019855;28;20030;-75
2022/08/05 04:51:13;;;;;;;20.98;7.30;;;;;;;17.49;100.00;101354.38;5027607;28;20382;-76
2022/08/05 04:53:39;;;;;;;21.98;8.07;;;;;;;17.51;100.00;101349.63;5020353;28;20097;-76
2022/08/05 04:56:06;;;;;;;20.42;8.02;;;;;;;17.52;100.00;101357.66;5031383;28;20045;-74
2022/08/05 04:58:31;;;;;;;19.92;7.50;;;;;;;17.51;100.00;101349.63;5025928;28;20038;-74
2022/08/05 05:00:56;;;;;;;17.83;7.63;;;;;;;17.54;100.00;101352.94;5021624;28;20029;-75
2022/08/05 05:03:22;;;;;;;20.13;6.82;;;;;;;17.54;100.00;101352.06;5033860;28;20025;-75
2022/08/05 05:05:47;;;;;;;22.75;7.63;;;;;;;17.56;100.00;101352.78;5031874;28;20067;-75
2022/08/05 05:08:13;;;;;;;19.27;7.53;;;;;;;17.55;100.00;101351.91;5027660;28;20036;-75
2022/08/05 05:10:41;;;;;;;18.83;7.28;;;;;;;17.58;100.00;101362.50;5015362;28;20033;-75
2022/08/05 05:13:08;;;;;;;22.30;8.70;;;;;;;17.58;100.00;101357.06;5021669;28;20037;-75
2022/08/05 05:15:33;;;;;;;22.73;8.00;;;;;;;17.61;100.00;101355.91;5032453;28;20067;-75
2022/08/05 05:17:59;;;;;;;20.92;7.35;;;;;;;17.64;100.00;101352.91;5033534;28;20037;-76
2022/08/05 05:20:24;;;;;;;19.75;8.07;;;;;;;17.67;100.00;101359.91;5031010;28;20125;-75
2022/08/05 05:22:49;;;;;;;20.13;7.40;;;;;;;17.69;100.00;101364.22;5032074;28;20035;-76
2022/08/05 05:25:14;;;;;;;17.92;7.30;;;;;;;17.71;100.00;101361.34;5028142;28;20456;-76
2022/08/05 05:27:40;;;;;;;21.35;8.23;;;;;;;17.71;100.00;101362.19;5027894;28;20080;-76
2022/08/05 05:30:06;;;;;;;19.40;7.38;;;;;;;17.73;100.00;101373.78;5028467;28;20580;-76
2022/08/05 05:32:31;;;;;;;24.83;8.13;;;;;;;17.71;100.00;101373.06;5028552;28;20076;-76
2022/08/05 05:34:57;;;;;;;18.50;7.60;;;;;;;17.72;99.94;101379.38;5026938;28;20025;-76
2022/08/05 05:37:22;;;;;;;21.50;7.68;;;;;;;17.72;100.00;101382.94;5028669;28;20080;-76
2022/08/05 05:39:47;;;;;;;16.55;6.82;;;;;;;17.74;100.00;101377.34;5029125;28;20036;-76
2022/08/05 05:42:12;;;;;;;20.08;7.35;;;;;;;17.74;99.74;101386.34;5030505;28;20029;-76
2022/08/05 05:44:38;;;;;;;25.83;7.82;;;;;;;17.76;100.00;101391.66;5031344;28;20078;-76
2022/08/05 05:47:03;;;;;;;21.20;7.95;;;;;;;17.76;100.00;101399.81;5035517;28;20064;-76
2022/08/05 05:49:29;;;;;;;19.55;6.65;;;;;;;17.75;99.99;101395.38;5029083;28;20167;-76
2022/08/05 05:51:54;;;;;;;17.20;7.47;;;;;;;17.76;100.00;101397.97;5031124;28;20507;-76
2022/08/05 05:54:20;;;;;;;16.63;6.47;;;;;;;17.78;99.79;101403.25;5036231;28;20029;-76
2022/08/05 05:56:45;;;;;;;20.27;7.60;;;;;;;17.78;100.00;101404.09;5031730;28;20030;-76
2022/08/05 05:59:11;;;;;;;18.95;6.85;;;;;;;17.80;100.00;101403.94;5022217;28;20814;-76
2022/08/05 06:01:39;;;;;;;19.85;7.28;;;;;;;17.80;100.00;101418.41;5026001;28;20485;-76
2022/08/05 06:04:09;;;;;;;18.48;6.28;;;;;;;17.80;100.00;101415.69;5028887;28;20548;-76
2022/08/05 06:06:35;;;;;;;20.00;7.00;;;;;;;17.82;99.96;101408.25;5036091;28;20444;-76
2022/08/05 06:09:00;;;;;;;18.55;6.65;;;;;;;17.85;100.00;101411.66;5031359;28;20059;-76
2022/08/05 06:11:25;;;;;;;17.20;6.85;;;;;;;17.85;99.74;101411.66;5025576;28;20493;-76
2022/08/05 06:13:51;;;;;;;19.63;6.20;;;;;;;17.84;99.39;101407.25;5028288;28;20429;-76
2022/08/05 06:16:16;;;;;;;19.77;6.05;;;;;;;17.86;99.36;101416.94;5029988;28;20485;-76
2022/08/05 06:18:41;;;;;;;17.50;5.80;;;;;;;17.88;99.42;101417.69;5028060;28;20045;-76
2022/08/05 06:21:07;;;;;;;20.35;6.40;;;;;;;17.91;99.81;101405.69;5025390;28;20025;-76
2022/08/05 06:23:32;;;;;;;21.67;7.25;;;;;;;17.93;99.49;101415.41;5020759;28;20025;-76
2022/08/05 06:25:57;;;;;;;15.30;6.07;;;;;;;17.97;99.72;101413.25;5028709;28;20030;-76
2022/08/05 06:28:22;;;;;;;19.83;7.00;;;;;;;17.99;99.55;101414.81;5042596;28;20033;-76
2022/08/05 06:30:48;;;;;;;19.23;6.65;;;;;;;18.04;99.69;101416.22;5035429;28;20092;-76
2022/08/05 06:33:13;;;;;;;18.15;5.93;;;;;;;18.09;99.19;101419.38;5030841;28;20500;-76
2022/08/05 06:35:39;;;;;;;18.75;6.32;;;;;;;18.14;98.71;101411.59;5044432;28;20020;-76
2022/08/05 06:38:04;;;;;;;15.40;5.95;;;;;;;18.19;99.31;101425.63;5038300;28;20036;-76
2022/08/05 06:40:30;;;;;;;19.75;6.70;;;;;;;18.21;98.41;101422.78;5031647;28;20100;-76
2022/08/05 06:42:55;;;;;;;17.73;6.53;;;;;;;18.25;99.29;101430.47;5030139;28;20036;-75
2022/08/05 06:45:20;;;;;;;17.63;6.85;;;;;;;18.30;99.13;101440.91;5031443;28;20053;-75
2022/08/05 06:47:46;;;;;;;19.23;6.13;;;;;;;18.32;99.36;101447.09;5029388;28;20025;-75
2022/08/05 06:50:11;;;;;;;14.52;6.00;;;;;;;18.34;98.03;101445.06;5032028;28;20380;-75
2022/08/05 06:52:36;;;;;;;15.38;5.65;;;;;;;18.37;97.44;101449.34;5030115;28;20033;-75
2022/08/05 06:55:02;;;;;;;21.13;6.18;;;;;;;18.37;96.92;101455.63;5026347;28;20091;-75
2022/08/05 06:57:27;;;;;;;16.52;6.57;;;;;;;18.39;97.28;101459.09;5028469;28;20035;-75
2022/08/05 06:59:52;;;;;;;17.13;6.47;;;;;;;18.39;97.08;101460.94;5029818;28;20051;-75
2022/08/05 07:02:17;;;;;;;15.88;6.07;;;;;;;18.41;98.23;101467.94;5026058;28;20021;-76
2022/08/05 07:04:43;;;;;;;16.00;5.60;;;;;;;18.43;97.61;101468.66;5023551;28;20622;-75
2022/08/05 07:07:08;;;;;;;16.50;5.68;;;;;;;18.47;98.51;101464.63;5032829;28;20435;-75
2022/08/05 07:09:33;;;;;;;18.63;6.30;;;;;;;18.50;96.69;101469.75;5022386;28;20040;-75
2022/08/05 07:11:59;;;;;;;20.13;6.03;;;;;;;18.53;96.06;101465.91;5026967;28;20028;-75
2022/08/05 07:17:08;;;;;;;18.33;6.50;;;;;;;18.60;96.05;101463.44;5029989;28;20056;-75
2022/08/05 07:19:34;;;;;;;17.00;5.70;;;;;;;18.62;95.03;101477.75;5025967;28;20025;-75
2022/08/05 07:21:59;;;;;;;17.98;6.53;;;;;;;18.68;95.82;101478.03;5031536;28;20040;-75
2022/08/05 07:24:24;;;;;;;20.48;5.78;;;;;;;18.75;95.64;101480.97;5025945;28;20112;-75
2022/08/05 07:26:50;;;;;;;17.42;5.43;;;;;;;18.84;96.09;101482.81;5032000;28;20094;-75
2022/08/05 07:29:15;;;;;;;21.05;5.78;;;;;;;18.94;96.18;101487.38;5050832;28;20048;-75
2022/08/05 07:31:41;;;;;;;18.40;5.97;;;;;;;18.98;94.58;101491.53;5026316;28;20017;-75
2022/08/05 07:34:06;;;;;;;18.75;5.90;;;;;;;19.04;94.87;101499.06;5030218;28;20425;-75
2022/08/05 07:36:32;;;;;;;15.60;4.97;;;;;;;19.07;91.71;101497.94;5028540;28;20042;-75
2022/08/05 07:39:07;;;;;;;16.20;5.22;;;;;;;19.14;94.33;101502.59;5028854;28;20028;-76
2022/08/05 07:41:32;;;;;;;14.73;5.93;;;;;;;19.18;92.09;101505.88;5029978;28;20572;-75
2022/08/05 07:43:58;;;;;;;13.57;4.25;;;;;;;19.19;89.89;101504.84;5028654;28;20035;-75
2022/08/05 07:46:25;;;;;;;16.92;4.43;;;;;;;19.19;88.34;101507.59;5029452;28;20029;-75
2022/08/05 07:48:51;;;;;;;15.68;4.80;;;;;;;19.19;88.62;101511.16;5029269;28;20033;-75
2022/08/05 07:51:17;;;;;;;13.07;3.92;;;;;;;19.18;87.05;101514.03;5024496;28;20401;-75
2022/08/05 07:53:42;;;;;;;13.32;4.25;;;;;;;19.13;85.59;101510.94;5026918;28;20024;-75
2022/08/05 07:56:07;;;;;;;17.42;4.97;;;;;;;19.13;88.38;101511.78;5030591;28;20036;-75
2022/08/05 07:58:33;;;;;;;13.10;3.95;;;;;;;19.11;89.18;101515.69;5030149;28;20033;-75
2022/08/05 08:00:58;;;;;;;15.60;4.88;;;;;;;19.11;87.84;101518.41;5027212;28;20104;-76
2022/08/05 08:03:23;;;;;;;13.63;4.53;;;;;;;19.11;87.30;101521.97;5029800;28;20167;-75
2022/08/05 08:05:52;;;;;;;13.70;4.63;;;;;;;19.14;90.32;101524.41;5025680;28;20079;-75
2022/08/05 08:08:17;;;;;;;14.13;4.57;;;;;;;19.17;85.63;101529.53;5024870;28;20036;-75
2022/08/05 08:10:43;;;;;;;12.65;3.97;;;;;;;19.23;82.97;101529.97;5025444;28;20756;-75
2022/08/05 08:13:09;;;;;;;15.55;4.68;;;;;;;19.36;85.72;101522.25;5027689;28;20528;-75
2022/08/05 08:15:34;;;;;;;10.52;4.30;;;;;;;19.48;84.33;101531.91;5018530;28;20034;-76
2022/08/05 08:17:59;;;;;;;10.15;3.90;;;;;;;19.60;84.99;101529.81;5025011;28;20037;-75
2022/08/05 08:20:25;;;;;;;12.15;3.70;;;;;;;19.68;82.85;101534.53;5032069;28;20514;-76
2022/08/05 08:22:55;;;;;;;10.98;3.97;;;;;;;19.80;84.14;101540.63;5030389;28;20021;-76
2022/08/05 08:25:20;;;;;;;14.63;3.97;;;;;;;19.85;84.43;101543.72;5028434;28;20040;-76
2022/08/05 08:27:46;;;;;;;13.13;4.53;;;;;;;19.86;81.65;101548.19;5029451;28;20496;-76
2022/08/05 08:30:12;;;;;;;12.15;3.85;;;;;;;19.87;81.41;101548.03;5031810;28;20041;-76
2022/08/05 08:32:37;;;;;;;10.23;3.92;;;;;;;19.85;79.32;101560.09;5031772;28;20088;-76
2022/08/05 08:35:03;;;;;;;12.50;4.10;;;;;;;19.87;83.20;101553.47;5028529;28;20533;-76
2022/08/05 08:37:28;;;;;;;11.90;3.95;;;;;;;19.87;82.50;101553.47;5032117;28;20150;-76
2022/08/05 08:39:53;;;;;;;14.48;4.28;;;;;;;19.91;82.46;101556.72;5032288;28;20029;-76
2022/08/05 08:42:20;;;;;;;9.25;4.07;;;;;;;19.90;83.07;101561.34;5032115;28;20068;-76
2022/08/05 08:44:46;;;;;;;11.98;4.43;;;;;;;19.92;79.10;101560.34;5031916;28;20025;-76
2022/08/05 08:47:13;;;;;;;10.77;4.03;;;;;;;19.94;80.86;101569.22;5032576;28;20021;-76
2022/08/05 08:49:43;;;;;;;11.43;3.53;;;;;;;19.95;80.96;101576.41;5036846;28;20478;-75
2022/08/05 08:52:16;;;;;;;12.07;4.30;;;;;;;19.94;78.88;101575.50;5033271;28;20064;-76
2022/08/05 08:54:43;;;;;;;12.98;4.35;;;;;;;19.94;79.72;101574.66;5033710;28;20110;-76
2022/08/05 08:57:09;;;;;;;13.45;3.97;;;;;;;19.96;80.29;101589.03;5033564;28;20025;-76
2022/08/05 08:59:35;;;;;;;13.43;4.05;;;;;;;19.97;79.10;101586.16;5033092;28;20105;-76
2022/08/05 09:02:05;;;;;;;9.98;3.65;;;;;;;20.00;79.51;101588.56;5033596;28;20021;-76
2022/08/05 09:04:32;;;;;;;12.13;3.65;;;;;;;20.05;78.66;101599.84;5033789;28;20026;-76
2022/08/05 09:06:57;;;;;;;8.50;3.53;;;;;;;20.11;77.64;101594.78;5027377;28;20040;-76
2022/08/05 09:09:23;;;;;;;10.63;3.70;;;;;;;20.18;77.29;101599.44;5031943;28;20034;-76
2022/08/05 09:11:48;;;;;;;13.75;4.10;;;;;;;20.23;74.96;101601.69;5042647;28;20025;-76
2022/08/05 09:14:13;;;;;;;10.75;3.40;;;;;;;20.32;76.25;101602.63;5050877;28;20396;-77
2022/08/05 09:16:39;;;;;;;12.02;3.53;;;;;;;20.36;76.29;101604.03;5031614;28;21345;-76
2022/08/05 09:19:06;;;;;;;9.10;3.63;;;;;;;20.36;75.91;101604.03;5032875;28;20033;-77
2022/08/05 09:21:32;;;;;;;10.50;3.75;;;;;;;20.32;75.24;101611.66;5033135;28;20029;-76
2022/08/05 09:24:07;;;;;;;9.15;3.70;;;;;;;20.28;76.23;101614.88;5034605;28;20079;-76
2022/08/05 09:26:33;;;;;;;8.27;3.30;;;;;;;20.20;74.88;101607.47;5027774;28;20053;-76
2022/08/05 09:29:00;;;;;;;8.50;3.30;;;;;;;20.16;75.60;101617.88;5038038;28;20080;-76
2022/08/05 09:31:26;;;;;;;6.80;3.15;;;;;;;20.15;74.55;101620.75;5037894;28;20038;-76
2022/08/05 09:33:57;;;;;;;6.05;2.95;;;;;;;20.16;72.84;101617.00;5045916;28;20492;-76
2022/08/05 09:36:23;;;;;;;7.43;3.17;;;;;;;20.19;70.79;101612.09;5051270;28;20035;-76
2022/08/05 09:39:00;;;;;;;5.28;2.45;;;;;;;20.24;70.29;101620.66;5046990;28;20052;-76
2022/08/05 09:41:25;;;;;;;10.70;3.15;;;;;;;20.34;73.63;101619.72;5031500;28;20481;-76
2022/08/05 09:43:51;;;;;;;10.55;2.97;;;;;;;20.40;69.58;101625.38;5029875;28;20120;-76
2022/08/05 09:46:32;;;;;;;8.60;3.00;;;;;;;20.52;70.16;101626.00;5050358;28;20033;-76
2022/08/05 09:49:06;;;;;;;7.55;2.70;;;;;;;20.63;70.64;101632.22;5034756;28;20461;-76
2022/08/05 09:51:38;;;;;;;11.18;3.25;;;;;;;20.71;70.91;101626.84;5032634;28;20030;-76
2022/08/05 09:54:07;;;;;;;7.53;2.90;;;;;;;20.78;69.34;101627.94;5047550;28;20048;-76
2022/08/05 09:56:37;;;;;;;9.30;3.30;;;;;;;20.87;69.68;101632.41;5033261;28;20163;-76
2022/08/05 09:59:08;;;;;;;11.38;2.65;;;;;;;20.92;68.62;101635.53;5031018;28;20033;-76
2022/08/05 10:01:35;;;;;;;6.50;2.70;;;;;;;20.92;67.22;101627.34;5031980;28;20029;-76
2022/08/05 10:04:12;;;;;;;4.85;2.15;;;;;;;20.90;64.12;101637.56;5031842;28;20087;-76
2022/08/05 10:06:51;;;;;;;4.85;2.28;;;;;;;20.89;64.37;101648.66;5032004;28;20044;-76
2022/08/05 10:09:20;;;;;;;5.43;2.38;;;;;;;20.91;63.96;101641.16;5029633;28;20053;-76
2022/08/05 10:11:46;;;;;;;7.87;2.47;;;;;;;20.99;66.16;101643.09;5041523;28;20029;-76
2022/08/05 10:14:23;;;;;;;6.80;2.63;;;;;;;21.00;66.64;101653.84;5042513;28;20393;-76
2022/08/05 10:16:49;;;;;;;6.10;2.38;;;;;;;20.96;60.78;101652.44;5049084;28;20481;-76
2022/08/05 10:19:15;;;;;;;5.80;2.22;;;;;;;20.91;62.04;101657.56;5051937;28;20292;-76
2022/08/05 10:21:40;;;;;;;9.35;2.25;;;;;;;20.89;61.31;101657.69;5039588;28;20025;-76
2022/08/05 10:24:07;;;;;;;5.28;2.40;;;;;;;20.87;59.06;101661.63;5049460;28;20143;-76
2022/08/05 10:26:32;;;;;;;6.25;2.33;;;;;;;20.91;61.53;101654.81;5051790;28;20032;-76
2022/08/05 10:28:58;;;;;;;4.47;2.20;;;;;;;20.93;56.99;101659.09;5049957;28;20052;-75
2022/08/05 10:31:23;;;;;;;7.57;2.22;;;;;;;20.99;58.34;101651.28;5041357;28;20025;-75
2022/08/05 10:33:49;;;;;;;5.55;1.85;;;;;;;21.02;57.45;101657.25;5031744;28;20021;-76
2022/08/05 10:36:14;;;;;;;8.52;2.28;;;;;;;21.08;59.32;101661.22;5031856;28;20390;-75
2022/08/05 10:38:45;;;;;;;6.50;2.25;;;;;;;21.08;57.27;101664.84;5043034;28;20031;-76
2022/08/05 10:41:21;;;;;;;2.17;1.55;;;;;;;21.08;55.51;101666.69;5050835;28;20056;-76
2022/08/05 10:44:04;;;;;;;5.80;2.17;;;;;;;21.07;58.34;101659.50;5038471;28;20045;-76
2022/08/05 10:46:44;;;;;;;4.75;2.05;;;;;;;21.07;59.16;101664.97;5030337;28;20079;-76
2022/08/05 10:49:10;;;;;;;7.72;1.88;;;;;;;21.10;57.74;101667.41;5025120;28;20400;-76
2022/08/05 10:51:49;;;;;;;2.95;2.05;;;;;;;21.16;59.87;101676.81;5022482;28;20025;-76
2022/08/05 10:54:15;;;;;;;4.63;2.00;;;;;;;21.21;57.41;101671.72;5030423;28;20051;-76
2022/08/05 10:56:55;;;;;;;4.18;2.05;;;;;;;21.24;55.83;101674.97;5030343;28;20150;-76
2022/08/05 10:59:31;;;;;;;4.07;2.15;;;;;;;21.25;55.73;101682.16;5029461;28;20397;-76
2022/08/05 11:02:06;;;;;;;4.47;1.70;;;;;;;21.31;56.60;101683.41;5025527;28;20404;-76
2022/08/05 11:04:42;;;;;;;3.70;1.92;;;;;;;21.39;56.06;101680.72;5043112;28;20535;-76
2022/08/05 11:07:10;;;;;;;4.95;1.98;;;;;;;21.46;57.32;101691.84;5048880;28;20531;-76
2022/08/05 11:09:50;;;;;;;5.20;1.70;;;;;;;21.48;55.15;101681.63;5033108;28;20072;-76
2022/08/05 11:12:35;;;;;;;3.58;1.70;;;;;;;21.54;57.08;101683.72;5022997;28;20045;-76
2022/08/05 11:15:31;;;;;;;3.97;1.60;;;;;;;21.57;56.56;101688.00;5023601;28;20033;-76
2022/08/05 11:18:24;;;;;;;2.13;1.80;;;;;;;21.65;58.16;101690.75;5032175;28;20036;-74
2022/08/05 11:20:50;;;;;;;10.13;2.33;;;;;;;21.67;55.19;101687.84;5026913;28;20118;-75
2022/08/05 11:23:32;;;;;;;4.85;2.25;;;;;;;21.76;59.30;101695.09;5026207;28;20048;-75